sensor_id;sensor_type;location;lat;lon;timestamp;temperature;humidity
59301;DHT22;45073;52.740;6.784;2023-01-24T00:01:39;4.60;99.90
59301;DHT22;45073;52.740;6.784;2023-01-24T00:04:05;4.60;99.90
59301;DHT22;45073;52.740;6.784;2023-01-24T00:06:30;4.70;99.90
59301;DHT22;45073;52.740;6.784;2023-01-24T00:08:56;4.60;99.90
59301;DHT22;45073;52.740;6.784;2023-01-24T00:11:21;4.60;99.90
59301;DHT22;45073;52.740;6.784;2023-01-24T00:13:47;4.60;99.90
59301;DHT22;45073;52.740;6.784;2023-01-24T00:16:20;4.60;99.90
59301;DHT22;45073;52.740;6.784;2023-01-24T00:18:47;4.60;99.90
59301;DHT22;45073;52.740;6.784;2023-01-24T00:21:18;4.60;99.90
59301;DHT22;45073;52.740;6.784;2023-01-24T00:23:47;4.60;99.90
59301;DHT22;45073;52.740;6.784;2023-01-24T00:26:13;4.60;99.90
59301;DHT22;45073;52.740;6.784;2023-01-24T00:28:39;4.60;99.90
59301;DHT22;45073;52.740;6.784;2023-01-24T00:31:05;4.60;99.90
59301;DHT22;45073;52.740;6.784;2023-01-24T00:33:31;4.60;99.90
59301;DHT22;45073;52.740;6.784;2023-01-24T00:35:57;4.60;99.90
59301;DHT22;45073;52.740;6.784;2023-01-24T00:38:23;4.60;99.90
59301;DHT22;45073;52.740;6.784;2023-01-24T00:40:49;4.60;99.90
59301;DHT22;45073;52.740;6.784;2023-01-24T00:43:15;4.60;99.90
59301;DHT22;45073;52.740;6.784;2023-01-24T00:45:41;4.60;99.90
59301;DHT22;45073;52.740;6.784;2023-01-24T00:48:09;4.60;99.90
59301;DHT22;45073;52.740;6.784;2023-01-24T00:50:35;4.60;99.90
59301;DHT22;45073;52.740;6.784;2023-01-24T00:53:00;4.60;99.90
59301;DHT22;45073;52.740;6.784;2023-01-24T00:55:27;4.50;99.90
59301;DHT22;45073;52.740;6.784;2023-01-24T00:57:53;4.60;99.90
59301;DHT22;45073;52.740;6.784;2023-01-24T01:00:19;4.60;99.90
59301;DHT22;45073;52.740;6.784;2023-01-24T01:02:45;4.60;99.90
59301;DHT22;45073;52.740;6.784;2023-01-24T01:05:10;4.60;99.90
59301;DHT22;45073;52.740;6.784;2023-01-24T01:07:36;4.60;99.90
59301;DHT22;45073;52.740;6.784;2023-01-24T01:10:02;4.60;99.90
59301;DHT22;45073;52.740;6.784;2023-01-24T01:12:28;4.60;99.90
59301;DHT22;45073;52.740;6.784;2023-01-24T01:14:53;4.50;99.90
59301;DHT22;45073;52.740;6.784;2023-01-24T01:17:19;4.60;99.90
59301;DHT22;45073;52.740;6.784;2023-01-24T01:19:44;4.60;99.90
59301;DHT22;45073;52.740;6.784;2023-01-24T01:22:10;4.60;99.90
59301;DHT22;45073;52.740;6.784;2023-01-24T01:24:36;4.60;99.90
59301;DHT22;45073;52.740;6.784;2023-01-24T01:27:02;4.60;99.90
59301;DHT22;45073;52.740;6.784;2023-01-24T01:29:27;4.60;99.90
59301;DHT22;45073;52.740;6.784;2023-01-24T01:31:53;4.60;99.90
59301;DHT22;45073;52.740;6.784;2023-01-24T01:34:19;4.60;99.90
59301;DHT22;45073;52.740;6.784;2023-01-24T01:36:45;4.60;99.90
59301;DHT22;45073;52.740;6.784;2023-01-24T01:39:10;4.60;99.90
59301;DHT22;45073;52.740;6.784;2023-01-24T01:41:36;4.60;99.90
59301;DHT22;45073;52.740;6.784;2023-01-24T01:44:22;4.50;99.90
59301;DHT22;45073;52.740;6.784;2023-01-24T01:49:37;4.50;99.90
59301;DHT22;45073;52.740;6.784;2023-01-24T01:52:05;4.60;99.90
59301;DHT22;45073;52.740;6.784;2023-01-24T01:54:34;4.50;99.90
59301;DHT22;45073;52.740;6.784;2023-01-24T01:57:09;4.50;99.90
59301;DHT22;45073;52.740;6.784;2023-01-24T01:59:40;4.50;99.90
59301;DHT22;45073;52.740;6.784;2023-01-24T02:02:07;4.60;99.90
59301;DHT22;45073;52.740;6.784;2023-01-24T02:04:35;4.50;99.90
59301;DHT22;45073;52.740;6.784;2023-01-24T02:07:14;4.60;99.90
59301;DHT22;45073;52.740;6.784;2023-01-24T02:09:43;4.50;99.90
59301;DHT22;45073;52.740;6.784;2023-01-24T02:12:13;4.50;99.90
59301;DHT22;45073;52.740;6.784;2023-01-24T02:14:41;4.50;99.90
59301;DHT22;45073;52.740;6.784;2023-01-24T02:17:26;4.50;99.90
59301;DHT22;45073;52.740;6.784;2023-01-24T02:28:40;4.50;99.90
59301;DHT22;45073;52.740;6.784;2023-01-24T02:31:07;4.50;99.90
59301;DHT22;45073;52.740;6.784;2023-01-24T02:33:32;4.50;99.90
59301;DHT22;45073;52.740;6.784;2023-01-24T02:36:30;4.50;99.90
59301;DHT22;45073;52.740;6.784;2023-01-24T02:39:04;4.50;99.90
59301;DHT22;45073;52.740;6.784;2023-01-24T02:41:48;4.50;99.90
59301;DHT22;45073;52.740;6.784;2023-01-24T02:44:21;4.40;99.90
59301;DHT22;45073;52.740;6.784;2023-01-24T02:46:48;4.40;99.90
59301;DHT22;45073;52.740;6.784;2023-01-24T02:49:14;4.40;99.90
59301;DHT22;45073;52.740;6.784;2023-01-24T02:51:39;4.40;99.90
59301;DHT22;45073;52.740;6.784;2023-01-24T02:54:23;4.40;99.90
59301;DHT22;45073;52.740;6.784;2023-01-24T02:56:49;4.40;99.90
59301;DHT22;45073;52.740;6.784;2023-01-24T02:59:33;4.40;99.90
59301;DHT22;45073;52.740;6.784;2023-01-24T03:01:58;4.40;99.90
59301;DHT22;45073;52.740;6.784;2023-01-24T03:04:24;4.40;99.90
59301;DHT22;45073;52.740;6.784;2023-01-24T03:06:49;4.40;99.90
59301;DHT22;45073;52.740;6.784;2023-01-24T03:09:15;4.40;99.90
59301;DHT22;45073;52.740;6.784;2023-01-24T03:11:48;4.40;99.90
59301;DHT22;45073;52.740;6.784;2023-01-24T03:14:15;4.40;99.90
59301;DHT22;45073;52.740;6.784;2023-01-24T03:17:00;4.40;99.90
59301;DHT22;45073;52.740;6.784;2023-01-24T03:19:44;4.40;99.90
59301;DHT22;45073;52.740;6.784;2023-01-24T03:22:28;4.40;99.90
59301;DHT22;45073;52.740;6.784;2023-01-24T03:25:12;4.40;99.90
59301;DHT22;45073;52.740;6.784;2023-01-24T03:28:05;4.40;99.90
59301;DHT22;45073;52.740;6.784;2023-01-24T03:30:49;4.40;99.90
59301;DHT22;45073;52.740;6.784;2023-01-24T03:33:33;4.40;99.90
59301;DHT22;45073;52.740;6.784;2023-01-24T03:36:17;4.40;99.90
59301;DHT22;45073;52.740;6.784;2023-01-24T03:38:56;4.40;99.90
59301;DHT22;45073;52.740;6.784;2023-01-24T03:41:40;4.40;99.90
59301;DHT22;45073;52.740;6.784;2023-01-24T03:44:06;4.30;99.90
59301;DHT22;45073;52.740;6.784;2023-01-24T03:46:32;4.30;99.90
59301;DHT22;45073;52.740;6.784;2023-01-24T03:48:57;4.30;99.90
59301;DHT22;45073;52.740;6.784;2023-01-24T03:51:23;4.30;99.90
59301;DHT22;45073;52.740;6.784;2023-01-24T03:54:07;4.30;99.90
59301;DHT22;45073;52.740;6.784;2023-01-24T03:56:32;4.30;99.90
59301;DHT22;45073;52.740;6.784;2023-01-24T03:58:58;4.30;99.90
59301;DHT22;45073;52.740;6.784;2023-01-24T04:01:23;4.30;99.90
59301;DHT22;45073;52.740;6.784;2023-01-24T04:03:49;4.30;99.90
59301;DHT22;45073;52.740;6.784;2023-01-24T04:06:15;4.30;99.90
59301;DHT22;45073;52.740;6.784;2023-01-24T04:08:42;4.30;99.90
59301;DHT22;45073;52.740;6.784;2023-01-24T04:11:08;4.30;99.90
59301;DHT22;45073;52.740;6.784;2023-01-24T04:13:33;4.30;99.90
59301;DHT22;45073;52.740;6.784;2023-01-24T04:15:59;4.30;99.90
59301;DHT22;45073;52.740;6.784;2023-01-24T04:18:24;4.30;99.90
59301;DHT22;45073;52.740;6.784;2023-01-24T04:20:50;4.30;99.90
59301;DHT22;45073;52.740;6.784;2023-01-24T04:23:16;4.20;99.90
59301;DHT22;45073;52.740;6.784;2023-01-24T04:25:41;4.20;99.90
59301;DHT22;45073;52.740;6.784;2023-01-24T04:28:07;4.20;99.90
59301;DHT22;45073;52.740;6.784;2023-01-24T04:30:32;4.20;99.90
59301;DHT22;45073;52.740;6.784;2023-01-24T04:32:58;4.30;99.90
59301;DHT22;45073;52.740;6.784;2023-01-24T04:35:26;4.20;99.90
59301;DHT22;45073;52.740;6.784;2023-01-24T04:37:53;4.30;99.90
59301;DHT22;45073;52.740;6.784;2023-01-24T04:40:18;4.20;99.90
59301;DHT22;45073;52.740;6.784;2023-01-24T04:42:44;4.20;99.90
59301;DHT22;45073;52.740;6.784;2023-01-24T04:45:10;4.30;99.90
59301;DHT22;45073;52.740;6.784;2023-01-24T04:48:01;4.20;99.90
59301;DHT22;45073;52.740;6.784;2023-01-24T04:50:27;4.30;99.90
59301;DHT22;45073;52.740;6.784;2023-01-24T04:52:52;4.20;99.90
59301;DHT22;45073;52.740;6.784;2023-01-24T04:55:18;4.20;99.90
59301;DHT22;45073;52.740;6.784;2023-01-24T04:57:43;4.20;99.90
59301;DHT22;45073;52.740;6.784;2023-01-24T05:00:10;4.20;99.90
59301;DHT22;45073;52.740;6.784;2023-01-24T05:02:36;4.20;99.90
59301;DHT22;45073;52.740;6.784;2023-01-24T05:05:04;4.20;99.90
59301;DHT22;45073;52.740;6.784;2023-01-24T05:07:29;4.20;99.90
59301;DHT22;45073;52.740;6.784;2023-01-24T05:09:55;4.20;99.90
59301;DHT22;45073;52.740;6.784;2023-01-24T05:12:21;4.20;99.90
59301;DHT22;45073;52.740;6.784;2023-01-24T05:14:46;4.20;99.90
59301;DHT22;45073;52.740;6.784;2023-01-24T05:17:12;4.20;99.90
59301;DHT22;45073;52.740;6.784;2023-01-24T05:19:37;4.20;99.90
59301;DHT22;45073;52.740;6.784;2023-01-24T05:22:03;4.20;99.90
59301;DHT22;45073;52.740;6.784;2023-01-24T05:24:29;4.20;99.90
59301;DHT22;45073;52.740;6.784;2023-01-24T05:26:54;4.20;99.90
59301;DHT22;45073;52.740;6.784;2023-01-24T05:29:20;4.10;99.90
59301;DHT22;45073;52.740;6.784;2023-01-24T05:31:46;4.10;99.90
59301;DHT22;45073;52.740;6.784;2023-01-24T05:34:11;4.10;99.90
59301;DHT22;45073;52.740;6.784;2023-01-24T05:36:37;4.10;99.90
59301;DHT22;45073;52.740;6.784;2023-01-24T05:39:03;4.10;99.90
59301;DHT22;45073;52.740;6.784;2023-01-24T05:41:29;4.10;99.90
59301;DHT22;45073;52.740;6.784;2023-01-24T05:43:54;4.10;99.90
59301;DHT22;45073;52.740;6.784;2023-01-24T05:46:21;4.10;99.90
59301;DHT22;45073;52.740;6.784;2023-01-24T05:48:48;4.10;99.90
59301;DHT22;45073;52.740;6.784;2023-01-24T05:51:16;4.10;99.90
59301;DHT22;45073;52.740;6.784;2023-01-24T05:53:43;4.10;99.90
59301;DHT22;45073;52.740;6.784;2023-01-24T05:56:17;4.10;99.90
59301;DHT22;45073;52.740;6.784;2023-01-24T05:58:44;4.10;99.90
59301;DHT22;45073;52.740;6.784;2023-01-24T06:01:21;4.10;99.90
59301;DHT22;45073;52.740;6.784;2023-01-24T06:03:49;4.10;99.90
59301;DHT22;45073;52.740;6.784;2023-01-24T06:06:16;4.10;99.90
59301;DHT22;45073;52.740;6.784;2023-01-24T06:08:43;4.20;99.90
59301;DHT22;45073;52.740;6.784;2023-01-24T06:11:15;4.10;99.90
59301;DHT22;45073;52.740;6.784;2023-01-24T06:13:41;4.10;99.90
59301;DHT22;45073;52.740;6.784;2023-01-24T06:16:13;4.10;99.90
59301;DHT22;45073;52.740;6.784;2023-01-24T06:18:40;4.10;99.90
59301;DHT22;45073;52.740;6.784;2023-01-24T06:21:21;4.10;99.90
59301;DHT22;45073;52.740;6.784;2023-01-24T06:23:49;4.10;99.90
59301;DHT22;45073;52.740;6.784;2023-01-24T06:26:14;4.10;99.90
59301;DHT22;45073;52.740;6.784;2023-01-24T06:28:40;4.00;99.90
59301;DHT22;45073;52.740;6.784;2023-01-24T06:34:25;4.00;99.90
59301;DHT22;45073;52.740;6.784;2023-01-24T06:39:48;4.00;99.90
59301;DHT22;45073;52.740;6.784;2023-01-24T06:42:17;3.90;99.90
59301;DHT22;45073;52.740;6.784;2023-01-24T06:44:42;4.00;99.90
59301;DHT22;45073;52.740;6.784;2023-01-24T06:47:10;4.00;99.90
59301;DHT22;45073;52.740;6.784;2023-01-24T06:49:36;4.00;99.90
59301;DHT22;45073;52.740;6.784;2023-01-24T06:52:02;3.90;99.90
59301;DHT22;45073;52.740;6.784;2023-01-24T06:54:27;3.90;99.90
59301;DHT22;45073;52.740;6.784;2023-01-24T06:56:53;3.90;99.90
59301;DHT22;45073;52.740;6.784;2023-01-24T06:59:18;3.90;99.90
59301;DHT22;45073;52.740;6.784;2023-01-24T07:01:45;3.90;99.90
59301;DHT22;45073;52.740;6.784;2023-01-24T07:04:10;3.90;99.90
59301;DHT22;45073;52.740;6.784;2023-01-24T07:06:36;3.90;99.90
59301;DHT22;45073;52.740;6.784;2023-01-24T07:09:01;3.90;99.90
59301;DHT22;45073;52.740;6.784;2023-01-24T07:11:27;3.90;99.90
59301;DHT22;45073;52.740;6.784;2023-01-24T07:13:53;3.90;99.90
59301;DHT22;45073;52.740;6.784;2023-01-24T07:16:18;3.90;99.90
59301;DHT22;45073;52.740;6.784;2023-01-24T07:18:44;3.90;99.90
59301;DHT22;45073;52.740;6.784;2023-01-24T07:21:10;3.90;99.90
59301;DHT22;45073;52.740;6.784;2023-01-24T07:23:37;3.90;99.90
59301;DHT22;45073;52.740;6.784;2023-01-24T07:26:03;3.90;99.90
59301;DHT22;45073;52.740;6.784;2023-01-24T07:28:29;3.90;99.90
59301;DHT22;45073;52.740;6.784;2023-01-24T07:30:54;3.90;99.90
59301;DHT22;45073;52.740;6.784;2023-01-24T07:33:20;3.90;99.90
59301;DHT22;45073;52.740;6.784;2023-01-24T07:35:46;3.90;99.90
59301;DHT22;45073;52.740;6.784;2023-01-24T07:38:12;3.90;99.90
59301;DHT22;45073;52.740;6.784;2023-01-24T07:40:38;3.90;99.90
59301;DHT22;45073;52.740;6.784;2023-01-24T07:43:04;3.90;99.90
59301;DHT22;45073;52.740;6.784;2023-01-24T07:45:31;3.90;99.90
59301;DHT22;45073;52.740;6.784;2023-01-24T07:47:58;3.90;99.90
59301;DHT22;45073;52.740;6.784;2023-01-24T07:50:25;3.90;99.90
59301;DHT22;45073;52.740;6.784;2023-01-24T07:52:52;3.90;99.90
59301;DHT22;45073;52.740;6.784;2023-01-24T07:55:19;3.90;99.90
59301;DHT22;45073;52.740;6.784;2023-01-24T07:57:44;3.90;99.90
59301;DHT22;45073;52.740;6.784;2023-01-24T08:00:11;3.90;99.90
59301;DHT22;45073;52.740;6.784;2023-01-24T08:02:36;3.90;99.90
59301;DHT22;45073;52.740;6.784;2023-01-24T08:05:02;3.90;99.90
59301;DHT22;45073;52.740;6.784;2023-01-24T08:07:28;3.90;99.90
59301;DHT22;45073;52.740;6.784;2023-01-24T08:09:53;3.90;99.90
59301;DHT22;45073;52.740;6.784;2023-01-24T08:12:20;3.90;99.90
59301;DHT22;45073;52.740;6.784;2023-01-24T08:14:45;3.90;99.90
59301;DHT22;45073;52.740;6.784;2023-01-24T08:17:11;3.90;99.90
59301;DHT22;45073;52.740;6.784;2023-01-24T08:19:37;3.90;99.90
59301;DHT22;45073;52.740;6.784;2023-01-24T08:22:03;3.90;99.90
59301;DHT22;45073;52.740;6.784;2023-01-24T08:24:29;3.90;99.90
59301;DHT22;45073;52.740;6.784;2023-01-24T08:26:55;3.90;99.90
59301;DHT22;45073;52.740;6.784;2023-01-24T08:29:21;3.90;99.90
59301;DHT22;45073;52.740;6.784;2023-01-24T08:31:46;3.80;99.90
59301;DHT22;45073;52.740;6.784;2023-01-24T08:34:13;3.80;99.90
59301;DHT22;45073;52.740;6.784;2023-01-24T08:36:39;3.80;99.90
59301;DHT22;45073;52.740;6.784;2023-01-24T08:39:05;3.80;99.90
59301;DHT22;45073;52.740;6.784;2023-01-24T08:41:31;3.80;99.90
59301;DHT22;45073;52.740;6.784;2023-01-24T08:43:56;3.80;99.90
59301;DHT22;45073;52.740;6.784;2023-01-24T08:46:22;3.80;99.90
59301;DHT22;45073;52.740;6.784;2023-01-24T08:48:47;3.80;99.90
59301;DHT22;45073;52.740;6.784;2023-01-24T08:51:13;3.80;99.90
59301;DHT22;45073;52.740;6.784;2023-01-24T08:53:39;3.80;99.90
59301;DHT22;45073;52.740;6.784;2023-01-24T08:56:04;3.80;99.90
59301;DHT22;45073;52.740;6.784;2023-01-24T08:58:32;3.80;99.90
59301;DHT22;45073;52.740;6.784;2023-01-24T09:01:05;3.80;99.90
59301;DHT22;45073;52.740;6.784;2023-01-24T09:03:31;3.80;99.90
59301;DHT22;45073;52.740;6.784;2023-01-24T09:05:57;3.80;99.90
59301;DHT22;45073;52.740;6.784;2023-01-24T09:08:23;3.80;99.90
59301;DHT22;45073;52.740;6.784;2023-01-24T09:10:48;3.90;99.90
59301;DHT22;45073;52.740;6.784;2023-01-24T09:13:15;3.90;99.90
59301;DHT22;45073;52.740;6.784;2023-01-24T09:15:40;3.90;99.90
59301;DHT22;45073;52.740;6.784;2023-01-24T09:18:06;3.90;99.90
59301;DHT22;45073;52.740;6.784;2023-01-24T09:20:32;3.90;99.90
59301;DHT22;45073;52.740;6.784;2023-01-24T09:22:57;3.90;99.90
59301;DHT22;45073;52.740;6.784;2023-01-24T09:25:23;3.90;99.90
59301;DHT22;45073;52.740;6.784;2023-01-24T09:27:53;3.90;99.90
59301;DHT22;45073;52.740;6.784;2023-01-24T09:30:19;3.90;99.90
59301;DHT22;45073;52.740;6.784;2023-01-24T09:32:46;3.90;99.90
59301;DHT22;45073;52.740;6.784;2023-01-24T09:35:11;3.80;99.90
59301;DHT22;45073;52.740;6.784;2023-01-24T09:37:37;3.90;99.90
59301;DHT22;45073;52.740;6.784;2023-01-24T09:40:03;3.90;99.90
59301;DHT22;45073;52.740;6.784;2023-01-24T09:42:34;3.90;99.90
59301;DHT22;45073;52.740;6.784;2023-01-24T09:45:10;3.90;99.90
59301;DHT22;45073;52.740;6.784;2023-01-24T09:47:53;3.90;99.90
59301;DHT22;45073;52.740;6.784;2023-01-24T09:50:40;3.90;99.90
59301;DHT22;45073;52.740;6.784;2023-01-24T09:53:31;3.90;99.90
59301;DHT22;45073;52.740;6.784;2023-01-24T09:55:58;3.90;99.90
59301;DHT22;45073;52.740;6.784;2023-01-24T09:58:29;3.90;99.90
59301;DHT22;45073;52.740;6.784;2023-01-24T10:01:04;3.90;99.90
59301;DHT22;45073;52.740;6.784;2023-01-24T10:03:33;3.90;99.90
59301;DHT22;45073;52.740;6.784;2023-01-24T10:06:05;3.90;99.90
59301;DHT22;45073;52.740;6.784;2023-01-24T10:08:44;3.90;99.90
59301;DHT22;45073;52.740;6.784;2023-01-24T10:19:59;3.90;99.90
59301;DHT22;45073;52.740;6.784;2023-01-24T10:25:21;3.90;99.90
59301;DHT22;45073;52.740;6.784;2023-01-24T10:27:50;3.90;99.90
59301;DHT22;45073;52.740;6.784;2023-01-24T10:30:24;3.90;99.90
59301;DHT22;45073;52.740;6.784;2023-01-24T10:32:52;3.90;99.90
59301;DHT22;45073;52.740;6.784;2023-01-24T10:35:27;3.90;99.90
59301;DHT22;45073;52.740;6.784;2023-01-24T10:37:56;3.90;99.90
59301;DHT22;45073;52.740;6.784;2023-01-24T10:40:24;3.90;99.90
59301;DHT22;45073;52.740;6.784;2023-01-24T10:42:53;3.90;99.90
59301;DHT22;45073;52.740;6.784;2023-01-24T10:48:27;3.90;99.90
59301;DHT22;45073;52.740;6.784;2023-01-24T10:51:10;3.90;99.90
59301;DHT22;45073;52.740;6.784;2023-01-24T10:53:36;3.90;99.90
59301;DHT22;45073;52.740;6.784;2023-01-24T10:56:03;3.90;99.90
59301;DHT22;45073;52.740;6.784;2023-01-24T11:00:59;3.90;99.90
59301;DHT22;45073;52.740;6.784;2023-01-24T11:03:30;3.90;99.90
59301;DHT22;45073;52.740;6.784;2023-01-24T11:05:58;3.90;99.90
59301;DHT22;45073;52.740;6.784;2023-01-24T11:08:35;3.90;99.90
59301;DHT22;45073;52.740;6.784;2023-01-24T11:11:02;3.90;99.90
59301;DHT22;45073;52.740;6.784;2023-01-24T11:13:36;3.90;99.90
59301;DHT22;45073;52.740;6.784;2023-01-24T11:18:51;3.90;99.90
59301;DHT22;45073;52.740;6.784;2023-01-24T11:21:18;3.90;99.90
59301;DHT22;45073;52.740;6.784;2023-01-24T11:23:45;3.90;99.90
59301;DHT22;45073;52.740;6.784;2023-01-24T11:26:28;3.90;99.90
59301;DHT22;45073;52.740;6.784;2023-01-24T11:29:02;4.00;99.90
59301;DHT22;45073;52.740;6.784;2023-01-24T11:31:32;4.00;99.90
59301;DHT22;45073;52.740;6.784;2023-01-24T11:48:15;4.10;99.90
59301;DHT22;45073;52.740;6.784;2023-01-24T11:54:00;4.10;99.90
59301;DHT22;45073;52.740;6.784;2023-01-24T11:56:58;4.10;99.90
59301;DHT22;45073;52.740;6.784;2023-01-24T11:59:52;4.10;99.90
59301;DHT22;45073;52.740;6.784;2023-01-24T12:03:18;4.10;99.90
59301;DHT22;45073;52.740;6.784;2023-01-24T12:08:28;4.10;99.90
59301;DHT22;45073;52.740;6.784;2023-01-24T12:19:27;4.10;99.90
59301;DHT22;45073;52.740;6.784;2023-01-24T12:21:58;4.10;99.90
59301;DHT22;45073;52.740;6.784;2023-01-24T12:24:28;4.20;99.90
59301;DHT22;45073;52.740;6.784;2023-01-24T12:27:00;4.20;99.90
59301;DHT22;45073;52.740;6.784;2023-01-24T12:29:33;4.20;99.90
59301;DHT22;45073;52.740;6.784;2023-01-24T12:32:17;4.20;99.90
59301;DHT22;45073;52.740;6.784;2023-01-24T12:45:45;4.20;99.90
59301;DHT22;45073;52.740;6.784;2023-01-24T12:48:25;4.20;99.90
59301;DHT22;45073;52.740;6.784;2023-01-24T12:56:25;4.10;99.90
59301;DHT22;45073;52.740;6.784;2023-01-24T12:58:53;4.10;99.90
59301;DHT22;45073;52.740;6.784;2023-01-24T13:07:05;4.10;99.90
59301;DHT22;45073;52.740;6.784;2023-01-24T13:12:27;4.10;99.90
59301;DHT22;45073;52.740;6.784;2023-01-24T13:15:13;4.10;99.90
59301;DHT22;45073;52.740;6.784;2023-01-24T13:20:55;4.10;99.90
59301;DHT22;45073;52.740;6.784;2023-01-24T13:23:38;4.10;99.90
59301;DHT22;45073;52.740;6.784;2023-01-24T13:29:06;4.10;99.90
59301;DHT22;45073;52.740;6.784;2023-01-24T13:32:04;4.10;99.90
59301;DHT22;45073;52.740;6.784;2023-01-24T13:34:41;4.10;99.90
59301;DHT22;45073;52.740;6.784;2023-01-24T13:37:16;4.00;99.90
59301;DHT22;45073;52.740;6.784;2023-01-24T13:39:44;4.00;99.90
59301;DHT22;45073;52.740;6.784;2023-01-24T13:44:43;4.00;99.90
59301;DHT22;45073;52.740;6.784;2023-01-24T13:49:39;4.00;99.90
59301;DHT22;45073;52.740;6.784;2023-01-24T13:52:35;4.00;99.90
59301;DHT22;45073;52.740;6.784;2023-01-24T13:55:03;4.00;99.90
59301;DHT22;45073;52.740;6.784;2023-01-24T13:57:31;4.00;99.90
59301;DHT22;45073;52.740;6.784;2023-01-24T14:08:01;4.00;99.90
59301;DHT22;45073;52.740;6.784;2023-01-24T14:10:38;4.00;99.90
59301;DHT22;45073;52.740;6.784;2023-01-24T14:13:09;4.00;99.90
59301;DHT22;45073;52.740;6.784;2023-01-24T14:15:51;4.00;99.90
59301;DHT22;45073;52.740;6.784;2023-01-24T14:18:46;4.00;99.90
59301;DHT22;45073;52.740;6.784;2023-01-24T14:21:20;4.00;99.90
59301;DHT22;45073;52.740;6.784;2023-01-24T14:24:28;4.00;99.90
59301;DHT22;45073;52.740;6.784;2023-01-24T14:26:59;3.90;99.90
59301;DHT22;45073;52.740;6.784;2023-01-24T14:29:40;3.90;99.90
59301;DHT22;45073;52.740;6.784;2023-01-24T14:32:23;3.90;99.90
59301;DHT22;45073;52.740;6.784;2023-01-24T14:37:53;3.90;99.90
59301;DHT22;45073;52.740;6.784;2023-01-24T14:40:22;3.90;99.90
59301;DHT22;45073;52.740;6.784;2023-01-24T14:42:50;3.90;99.90
59301;DHT22;45073;52.740;6.784;2023-01-24T14:45:20;3.90;99.90
59301;DHT22;45073;52.740;6.784;2023-01-24T14:47:48;3.90;99.90
59301;DHT22;45073;52.740;6.784;2023-01-24T14:50:22;3.80;99.90
59301;DHT22;45073;52.740;6.784;2023-01-24T14:52:48;3.80;99.90
59301;DHT22;45073;52.740;6.784;2023-01-24T14:57:43;3.80;99.90
59301;DHT22;45073;52.740;6.784;2023-01-24T15:02:49;3.70;99.90
59301;DHT22;45073;52.740;6.784;2023-01-24T15:05:32;3.70;99.90
59301;DHT22;45073;52.740;6.784;2023-01-24T15:07:59;3.70;99.90
59301;DHT22;45073;52.740;6.784;2023-01-24T15:10:36;3.70;99.90
59301;DHT22;45073;52.740;6.784;2023-01-24T15:13:08;3.70;99.90
59301;DHT22;45073;52.740;6.784;2023-01-24T15:15:35;3.70;99.90
59301;DHT22;45073;52.740;6.784;2023-01-24T15:18:03;3.70;99.90
59301;DHT22;45073;52.740;6.784;2023-01-24T15:20:30;3.70;99.90
59301;DHT22;45073;52.740;6.784;2023-01-24T15:22:58;3.70;99.90
59301;DHT22;45073;52.740;6.784;2023-01-24T15:25:31;3.60;99.90
59301;DHT22;45073;52.740;6.784;2023-01-24T15:28:09;3.60;99.90
59301;DHT22;45073;52.740;6.784;2023-01-24T15:30:34;3.60;99.90
59301;DHT22;45073;52.740;6.784;2023-01-24T15:33:02;3.60;99.90
59301;DHT22;45073;52.740;6.784;2023-01-24T15:35:31;3.60;99.90
59301;DHT22;45073;52.740;6.784;2023-01-24T15:40:28;3.60;99.90
59301;DHT22;45073;52.740;6.784;2023-01-24T15:42:54;3.50;99.90
59301;DHT22;45073;52.740;6.784;2023-01-24T15:45:46;3.50;99.90
59301;DHT22;45073;52.740;6.784;2023-01-24T15:48:21;3.50;99.90
59301;DHT22;45073;52.740;6.784;2023-01-24T15:50:53;3.50;99.90
59301;DHT22;45073;52.740;6.784;2023-01-24T15:53:32;3.40;99.90
59301;DHT22;45073;52.740;6.784;2023-01-24T15:56:04;3.40;99.90
59301;DHT22;45073;52.740;6.784;2023-01-24T15:58:33;3.40;99.90
59301;DHT22;45073;52.740;6.784;2023-01-24T16:00:59;3.40;99.90
59301;DHT22;45073;52.740;6.784;2023-01-24T16:03:25;3.40;99.90
59301;DHT22;45073;52.740;6.784;2023-01-24T16:05:51;3.40;99.90
59301;DHT22;45073;52.740;6.784;2023-01-24T16:08:17;3.40;99.90
59301;DHT22;45073;52.740;6.784;2023-01-24T16:10:44;3.40;99.90
59301;DHT22;45073;52.740;6.784;2023-01-24T16:15:50;3.30;99.90
59301;DHT22;45073;52.740;6.784;2023-01-24T16:18:16;3.30;99.90
59301;DHT22;45073;52.740;6.784;2023-01-24T16:20:41;3.30;99.90
59301;DHT22;45073;52.740;6.784;2023-01-24T16:23:07;3.30;99.90
59301;DHT22;45073;52.740;6.784;2023-01-24T16:25:34;3.30;99.90
59301;DHT22;45073;52.740;6.784;2023-01-24T16:28:02;3.30;99.90
59301;DHT22;45073;52.740;6.784;2023-01-24T16:30:28;3.20;99.90
59301;DHT22;45073;52.740;6.784;2023-01-24T16:32:55;3.20;99.90
59301;DHT22;45073;52.740;6.784;2023-01-24T16:35:21;3.20;99.90
59301;DHT22;45073;52.740;6.784;2023-01-24T16:37:47;3.20;99.90
59301;DHT22;45073;52.740;6.784;2023-01-24T16:40:14;3.30;99.90
59301;DHT22;45073;52.740;6.784;2023-01-24T16:42:43;3.20;99.90
59301;DHT22;45073;52.740;6.784;2023-01-24T16:45:20;3.20;99.90
59301;DHT22;45073;52.740;6.784;2023-01-24T16:47:49;3.20;99.90
59301;DHT22;45073;52.740;6.784;2023-01-24T16:50:15;3.20;99.90
59301;DHT22;45073;52.740;6.784;2023-01-24T16:52:41;3.20;99.90
59301;DHT22;45073;52.740;6.784;2023-01-24T16:55:08;3.20;99.90
59301;DHT22;45073;52.740;6.784;2023-01-24T16:57:33;3.10;99.90
59301;DHT22;45073;52.740;6.784;2023-01-24T16:59:59;3.10;99.90
59301;DHT22;45073;52.740;6.784;2023-01-24T17:02:24;3.10;99.90
59301;DHT22;45073;52.740;6.784;2023-01-24T17:04:50;3.10;99.90
59301;DHT22;45073;52.740;6.784;2023-01-24T17:07:16;3.10;99.90
59301;DHT22;45073;52.740;6.784;2023-01-24T17:09:41;3.10;99.90
59301;DHT22;45073;52.740;6.784;2023-01-24T17:12:07;3.10;99.90
59301;DHT22;45073;52.740;6.784;2023-01-24T17:14:34;3.10;99.90
59301;DHT22;45073;52.740;6.784;2023-01-24T17:17:00;3.10;99.90
59301;DHT22;45073;52.740;6.784;2023-01-24T17:19:25;3.10;99.90
59301;DHT22;45073;52.740;6.784;2023-01-24T17:21:51;3.10;99.90
59301;DHT22;45073;52.740;6.784;2023-01-24T17:24:16;3.10;99.90
59301;DHT22;45073;52.740;6.784;2023-01-24T17:26:42;3.10;99.90
59301;DHT22;45073;52.740;6.784;2023-01-24T17:29:08;3.10;99.90
59301;DHT22;45073;52.740;6.784;2023-01-24T17:31:34;3.10;99.90
59301;DHT22;45073;52.740;6.784;2023-01-24T17:34:00;3.10;99.90
59301;DHT22;45073;52.740;6.784;2023-01-24T17:36:25;3.10;99.90
59301;DHT22;45073;52.740;6.784;2023-01-24T17:38:52;3.10;99.90
59301;DHT22;45073;52.740;6.784;2023-01-24T17:41:20;3.10;99.90
59301;DHT22;45073;52.740;6.784;2023-01-24T17:43:47;3.10;99.90
59301;DHT22;45073;52.740;6.784;2023-01-24T17:46:14;3.10;99.90
59301;DHT22;45073;52.740;6.784;2023-01-24T17:48:40;3.10;99.90
59301;DHT22;45073;52.740;6.784;2023-01-24T17:51:07;3.10;99.90
59301;DHT22;45073;52.740;6.784;2023-01-24T17:53:33;3.10;99.90
59301;DHT22;45073;52.740;6.784;2023-01-24T17:55:58;3.10;99.90
59301;DHT22;45073;52.740;6.784;2023-01-24T17:58:24;3.10;99.90
59301;DHT22;45073;52.740;6.784;2023-01-24T18:00:54;3.10;99.90
59301;DHT22;45073;52.740;6.784;2023-01-24T18:03:19;3.10;99.90